Time;durP1;ratioP1;P1;durP2;ratioP2;P2;SDS_P1;SDS_P2;PMS_P1;PMS_P2;Temp;Humidity;BMP_temperature;BMP_pressure;BME280_temperature;BME280_humidity;BME280_pressure;Samples;Min_cycle;Max_cycle;Signal;HPM_P1;HPM_P2
2023/07/05 00:01:05;;;;;;;5.53;4.25;;;14.70;99.90;;;;;;8251119;28;20038;-82
2023/07/05 00:05:07;;;;;;;7.47;3.45;;;14.70;99.90;;;;;;8249281;28;20022;-82
2023/07/05 00:13:12;;;;;;;13.35;5.15;;;14.80;99.90;;;;;;8328769;28;20057;-78
2023/07/05 00:17:13;;;;;;;11.93;4.53;;;14.70;99.90;;;;;;8330859;28;20107;-79
2023/07/05 00:21:14;;;;;;;8.05;4.10;;;14.60;99.90;;;;;;8343806;28;20029;-79
2023/07/05 00:25:14;;;;;;;7.53;4.25;;;14.60;99.90;;;;;;8326325;28;20032;-79
2023/07/05 00:29:15;;;;;;;8.68;3.92;;;14.50;99.90;;;;;;8340129;28;20041;-79
2023/07/05 00:33:16;;;;;;;9.77;4.72;;;14.50;99.90;;;;;;8327484;28;20021;-79
2023/07/05 00:37:17;;;;;;;6.50;3.90;;;14.50;99.90;;;;;;8330632;28;20473;-79
2023/07/05 00:41:19;;;;;;;5.78;4.00;;;14.60;99.90;;;;;;8327492;28;20059;-79
2023/07/05 00:45:20;;;;;;;5.68;4.05;;;14.90;99.90;;;;;;8326815;28;20025;-79
2023/07/05 00:49:23;;;;;;;5.55;4.10;;;14.80;99.90;;;;;;8321390;28;20418;-79
2023/07/05 00:53:26;;;;;;;9.80;4.30;;;14.40;99.90;;;;;;8330637;28;20482;-79
2023/07/05 00:57:33;;;;;;;8.15;4.00;;;14.40;99.90;;;;;;8316798;28;20396;-79
2023/07/05 01:01:34;;;;;;;4.85;3.78;;;14.10;99.90;;;;;;8329683;28;20089;-79
2023/07/05 01:05:35;;;;;;;9.57;4.18;;;13.90;99.90;;;;;;8334445;28;20034;-79
2023/07/05 01:09:36;;;;;;;5.65;4.25;;;13.70;99.90;;;;;;8327039;28;20033;-80
2023/07/05 01:13:42;;;;;;;9.00;5.28;;;13.70;99.90;;;;;;8327857;28;20051;-78
2023/07/05 01:18:16;;;;;;;6.95;4.20;;;13.60;99.90;;;;;;8317578;28;20093;-79
2023/07/05 01:22:55;;;;;;;8.55;4.32;;;13.80;99.90;;;;;;8306877;28;20069;-79
2023/07/05 01:27:27;;;;;;;10.63;4.47;;;13.60;99.90;;;;;;8329086;28;20049;-79
2023/07/05 01:31:36;;;;;;;9.32;5.07;;;13.40;99.90;;;;;;8334034;28;20025;-79
2023/07/05 01:35:44;;;;;;;8.30;5.80;;;13.30;99.90;;;;;;8319552;28;20084;-78
2023/07/05 01:39:44;;;;;;;9.02;5.78;;;13.50;99.90;;;;;;8319351;28;20167;-79
2023/07/05 01:43:45;;;;;;;8.07;5.00;;;13.60;99.90;;;;;;8325892;28;20029;-79
2023/07/05 01:48:03;;;;;;;8.75;4.55;;;13.50;99.90;;;;;;8319135;28;20400;-78
2023/07/05 01:52:27;;;;;;;9.60;4.95;;;13.40;99.90;;;;;;8322294;28;20028;-79
2023/07/05 01:56:35;;;;;;;12.98;5.10;;;13.40;99.90;;;;;;8322249;28;20060;-78
2023/07/05 02:00:38;;;;;;;7.00;4.60;;;13.30;99.90;;;;;;8327034;28;20380;-79
2023/07/05 02:04:40;;;;;;;8.45;4.53;;;13.20;99.90;;;;;;8309759;28;20104;-78
2023/07/05 02:08:44;;;;;;;8.50;4.47;;;13.30;99.90;;;;;;8334858;28;20025;-78
2023/07/05 02:12:45;;;;;;;6.30;4.28;;;13.80;99.90;;;;;;8309248;28;20112;-78
2023/07/05 02:16:46;;;;;;;9.38;4.20;;;13.90;99.90;;;;;;8330528;28;20482;-78
2023/07/05 02:20:46;;;;;;;8.23;5.05;;;13.90;99.90;;;;;;8340835;28;20068;-78
2023/07/05 02:24:51;;;;;;;6.95;5.00;;;13.90;99.90;;;;;;8333650;28;20084;-78
2023/07/05 02:28:52;;;;;;;8.35;4.40;;;13.60;99.90;;;;;;8323133;28;20026;-78
2023/07/05 02:32:52;;;;;;;7.72;4.95;;;13.30;99.90;;;;;;8324143;28;20084;-78
2023/07/05 02:36:53;;;;;;;9.55;5.10;;;13.10;99.90;;;;;;8333163;28;20025;-78
2023/07/05 02:40:53;;;;;;;8.98;4.63;;;13.00;99.90;;;;;;8323690;28;20025;-78
2023/07/05 02:44:57;;;;;;;10.18;5.78;;;12.90;99.90;;;;;;8317151;28;20026;-79
2023/07/05 02:48:57;;;;;;;9.52;5.13;;;12.90;99.90;;;;;;8332626;28;20053;-79
2023/07/05 02:52:58;;;;;;;10.35;5.53;;;13.10;99.90;;;;;;8318016;28;20021;-79
2023/07/05 02:56:58;;;;;;;12.80;5.57;;;12.90;99.90;;;;;;8333201;28;20494;-78
2023/07/05 03:00:59;;;;;;;10.45;6.10;;;13.00;99.90;;;;;;8314011;28;20076;-79
2023/07/05 03:05:07;;;;;;;10.23;6.00;;;13.40;99.90;;;;;;8331228;28;20683;-78
2023/07/05 03:09:08;;;;;;;11.95;6.32;;;13.50;99.90;;;;;;8331978;28;20022;-78
2023/07/05 03:13:08;;;;;;;10.23;7.43;;;13.60;99.90;;;;;;8314035;28;20045;-79
2023/07/05 03:17:09;;;;;;;10.43;5.43;;;13.60;99.90;;;;;;8326803;28;20059;-79
2023/07/05 03:21:09;;;;;;;9.05;5.80;;;13.70;99.90;;;;;;8338814;28;20033;-78
2023/07/05 03:25:10;;;;;;;10.82;5.68;;;14.00;99.90;;;;;;8324213;28;20197;-78
2023/07/05 03:29:10;;;;;;;6.95;5.03;;;14.00;99.90;;;;;;8332127;28;20030;-79
2023/07/05 03:33:11;;;;;;;11.32;5.60;;;14.00;99.90;;;;;;8332798;28;20029;-79
2023/07/05 03:37:11;;;;;;;7.57;5.00;;;14.30;99.90;;;;;;8335767;28;20021;-79
2023/07/05 03:41:15;;;;;;;11.60;5.38;;;14.40;99.90;;;;;;8329325;28;20487;-79
2023/07/05 03:45:15;;;;;;;8.50;4.80;;;14.30;99.90;;;;;;8335686;28;20025;-80
2023/07/05 03:49:17;;;;;;;7.47;4.88;;;14.30;99.90;;;;;;8339762;28;20029;-80
2023/07/05 03:53:17;;;;;;;9.60;5.13;;;14.70;99.90;;;;;;8340205;28;20021;-79
2023/07/05 03:57:18;;;;;;;7.93;4.68;;;14.90;99.90;;;;;;8339166;28;20418;-79
2023/07/05 04:01:22;;;;;;;8.65;4.90;;;15.10;99.90;;;;;;8341418;28;20034;-81
2023/07/05 04:05:23;;;;;;;8.00;4.30;;;15.00;99.90;;;;;;8344840;28;20125;-78
2023/07/05 04:09:25;;;;;;;9.60;4.72;;;15.30;99.90;;;;;;8342129;28;20026;-81
2023/07/05 04:13:26;;;;;;;9.43;5.15;;;15.20;99.90;;;;;;8340181;28;20037;-81
2023/07/05 04:17:29;;;;;;;10.02;5.35;;;15.10;99.90;;;;;;8342673;28;20100;-82
2023/07/05 04:21:30;;;;;;;10.60;4.95;;;14.80;99.90;;;;;;8341835;28;20041;-82
2023/07/05 04:25:30;;;;;;;10.95;4.75;;;15.10;99.90;;;;;;8322441;28;20044;-82
2023/07/05 04:29:32;;;;;;;13.15;5.57;;;14.90;99.90;;;;;;8336972;28;20025;-83
2023/07/05 04:33:33;;;;;;;9.40;5.95;;;14.80;99.90;;;;;;8332603;28;20475;-83
2023/07/05 04:37:33;;;;;;;9.50;5.53;;;14.80;99.90;;;;;;8324078;28;20045;-82
2023/07/05 04:41:34;;;;;;;9.93;5.40;;;15.00;99.90;;;;;;8320743;28;20036;-82
2023/07/05 04:45:35;;;;;;;7.78;5.03;;;15.10;99.90;;;;;;8333071;28;20104;-82
2023/07/05 04:49:35;;;;;;;9.80;5.97;;;15.30;99.90;;;;;;8339999;28;20028;-82
2023/07/05 04:53:36;;;;;;;10.63;6.10;;;15.20;99.90;;;;;;8316744;28;20440;-81
2023/07/05 04:57:37;;;;;;;11.43;5.53;;;15.20;99.90;;;;;;8309936;28;20076;-81
2023/07/05 05:01:38;;;;;;;6.70;4.95;;;15.30;99.90;;;;;;8314978;28;20079;-82
2023/07/05 05:05:38;;;;;;;8.45;5.65;;;15.40;99.90;;;;;;8316123;28;20090;-81
2023/07/05 05:09:40;;;;;;;7.32;4.93;;;15.40;99.90;;;;;;8318797;28;20084;-81
2023/07/05 05:13:41;;;;;;;9.23;5.68;;;15.60;99.90;;;;;;8322558;28;20510;-82
2023/07/05 05:17:41;;;;;;;7.38;5.05;;;15.70;99.90;;;;;;8319973;28;20108;-83
2023/07/05 05:21:42;;;;;;;8.25;4.95;;;15.80;99.90;;;;;;8324084;28;20490;-82
2023/07/05 05:25:44;;;;;;;6.15;4.78;;;16.00;99.90;;;;;;8332198;28;20033;-82
2023/07/05 05:29:44;;;;;;;7.78;4.35;;;16.60;99.90;;;;;;8322874;28;20075;-84
2023/07/05 05:33:46;;;;;;;4.63;3.33;;;18.00;99.90;;;;;;8309617;28;20104;-85
2023/07/05 05:37:46;;;;;;;6.43;3.83;;;18.80;99.90;;;;;;8315872;28;20430;-83
2023/07/05 05:41:47;;;;;;;4.88;3.70;;;18.60;99.90;;;;;;8311343;28;20056;-82
2023/07/05 05:46:11;;;;;;;6.60;3.65;;;18.50;99.90;;;;;;8314857;28;20025;-82
2023/07/05 05:50:10;;;;;;;4.50;3.50;;;18.50;99.90;;;;;;8314193;28;20476;-81
2023/07/05 05:54:11;;;;;;;4.40;3.25;;;18.40;99.90;;;;;;8325658;28;20026;-83
2023/07/05 05:58:12;;;;;;;3.42;3.10;;;18.30;99.90;;;;;;8323996;28;20028;-81
2023/07/05 06:02:12;;;;;;;3.15;2.53;;;18.40;99.90;;;;;;8306581;28;20032;-82
2023/07/05 06:06:13;;;;;;;4.53;2.35;;;18.60;99.90;;;;;;8325532;28;20061;-82
2023/07/05 06:10:13;;;;;;;2.80;2.03;;;19.00;99.90;;;;;;8309812;28;20029;-83
2023/07/05 06:14:14;;;;;;;2.78;1.88;;;19.70;99.90;;;;;;8264512;23;20423;-81
2023/07/05 06:18:14;;;;;;;3.85;2.00;;;19.80;99.90;;;;;;8240143;28;20545;-80
2023/07/05 06:22:15;;;;;;;5.65;2.42;;;19.60;99.90;;;;;;8222507;28;20035;-80
2023/07/05 06:26:17;;;;;;;4.30;2.60;;;19.40;99.90;;;;;;8292698;28;20049;-80
2023/07/05 06:30:17;;;;;;;2.72;2.22;;;20.00;99.90;;;;;;8278263;28;20419;-81
2023/07/05 06:34:18;;;;;;;3.88;2.10;;;20.50;99.90;;;;;;8292606;28;20025;-81
2023/07/05 06:38:18;;;;;;;3.45;2.50;;;20.40;99.90;;;;;;8290021;28;20039;-81
2023/07/05 06:42:19;;;;;;;3.00;2.08;;;19.90;99.90;;;;;;8328795;28;20092;-80
2023/07/05 06:46:20;;;;;;;2.80;2.10;;;19.80;99.90;;;;;;8228949;28;20446;-82
2023/07/05 06:50:20;;;;;;;3.60;2.17;;;20.40;99.90;;;;;;8261807;28;20046;-80
2023/07/05 06:54:21;;;;;;;2.38;2.08;;;21.50;99.90;;;;;;8300925;28;20564;-76
2023/07/05 06:58:22;;;;;;;4.53;2.22;;;22.50;99.90;;;;;;8229405;28;20035;-77
2023/07/05 07:02:22;;;;;;;3.95;2.25;;;22.90;99.90;;;;;;8232027;28;20035;-77
2023/07/05 07:06:23;;;;;;;3.72;2.40;;;23.50;99.90;;;;;;8282023;28;20450;-77
2023/07/05 07:10:23;;;;;;;3.85;2.55;;;23.80;99.90;;;;;;8268153;28;20551;-82
2023/07/05 07:14:25;;;;;;;6.60;2.30;;;23.80;99.90;;;;;;8318103;28;20039;-82
2023/07/05 07:18:25;;;;;;;4.97;2.25;;;24.60;99.90;;;;;;8301093;28;20034;-81
2023/07/05 07:22:26;;;;;;;3.38;2.20;;;24.70;99.90;;;;;;8304599;28;20094;-82
2023/07/05 07:26:27;;;;;;;4.95;2.25;;;24.20;99.90;;;;;;8226604;28;20504;-82
2023/07/05 07:30:28;;;;;;;4.07;2.33;;;24.30;99.90;;;;;;8269480;28;20086;-83
2023/07/05 07:34:31;;;;;;;4.35;2.40;;;23.60;99.90;;;;;;8301757;28;20051;-80
2023/07/05 07:38:31;;;;;;;3.53;2.65;;;22.70;99.90;;;;;;8281810;28;20015;-82
2023/07/05 07:42:32;;;;;;;4.35;2.40;;;22.10;99.90;;;;;;8277260;28;20019;-82
2023/07/05 07:46:35;;;;;;;5.53;2.72;;;21.90;99.90;;;;;;8272239;28;20028;-82
2023/07/05 07:50:35;;;;;;;3.15;2.35;;;22.60;99.90;;;;;;8288308;28;20034;-82
2023/07/05 07:54:36;;;;;;;3.55;2.53;;;22.80;99.90;;;;;;8283861;28;20504;-82
2023/07/05 07:58:37;;;;;;;3.90;2.63;;;22.80;99.90;;;;;;8312994;28;20026;-82
2023/07/05 08:02:37;;;;;;;3.53;2.83;;;22.50;99.90;;;;;;8213858;28;20027;-82
2023/07/05 08:06:42;;;;;;;3.75;2.33;;;22.60;99.90;;;;;;8258878;28;20031;-82
2023/07/05 08:10:43;;;;;;;3.75;2.60;;;22.70;99.90;;;;;;8309192;28;20026;-82
2023/07/05 08:14:44;;;;;;;3.78;2.42;;;22.70;99.90;;;;;;8294540;28;20038;-79
2023/07/05 08:18:45;;;;;;;3.67;2.50;;;22.40;99.90;;;;;;8315521;28;20031;-80
2023/07/05 08:22:45;;;;;;;3.22;2.10;;;22.50;99.90;;;;;;8258810;28;20031;-80
2023/07/05 08:26:46;;;;;;;4.50;2.50;;;23.60;99.90;;;;;;8271293;28;20019;-80
2023/07/05 08:30:55;;;;;;;8.90;2.50;;;25.60;99.90;;;;;;8299926;28;20017;-82
2023/07/05 08:34:56;;;;;;;3.10;2.35;;;26.10;99.90;;;;;;8282135;28;20489;-82
2023/07/05 08:38:59;;;;;;;4.07;2.67;;;25.60;99.90;;;;;;8316895;28;20036;-83
2023/07/05 08:43:10;;;;;;;4.72;2.80;;;24.40;99.90;;;;;;8299920;28;20416;-81
2023/07/05 08:47:11;;;;;;;;;;;23.50;99.90;;;;;;8293310;28;20042;-82
2023/07/05 08:51:13;;;;;;;5.70;2.33;;;22.80;99.90;;;;;;8308903;28;19909;-82
2023/07/05 08:55:18;;;;;;;3.45;2.30;;;22.50;99.90;;;;;;8271136;28;20034;-81
2023/07/05 08:59:28;;;;;;;2.95;2.33;;;23.20;99.90;;;;;;8282038;28;20511;-82
2023/07/05 09:03:29;;;;;;;2.85;2.30;;;23.90;99.90;;;;;;8210193;28;20109;-82
2023/07/05 09:08:01;;;;;;;5.03;2.63;;;24.10;99.90;;;;;;8210069;28;20083;-82
2023/07/05 09:12:23;;;;;;;4.20;2.47;;;25.60;99.90;;;;;;8203638;28;20034;-82
2023/07/05 09:16:32;;;;;;;3.67;2.10;;;26.50;99.90;;;;;;8269791;28;20035;-82
2023/07/05 09:20:45;;;;;;;3.00;2.20;;;26.60;99.90;;;;;;8320589;28;20062;-83
2023/07/05 09:24:46;;;;;;;2.72;2.22;;;25.60;99.90;;;;;;8275520;28;20031;-82
2023/07/05 09:28:54;;;;;;;6.88;3.08;;;23.70;99.90;;;;;;8303505;28;20138;-81
2023/07/05 09:33:11;;;;;;;6.05;2.78;;;22.50;99.90;;;;;;8275826;28;20439;-85
2023/07/05 09:37:22;;;;;;;5.97;2.63;;;22.00;99.90;;;;;;8311332;28;20819;-84
2023/07/05 09:41:40;;;;;;;3.95;2.30;;;23.00;99.90;;;;;;8214888;28;20535;-84
2023/07/05 09:45:46;;;;;;;2.38;2.03;;;23.30;99.90;;;;;;8310285;28;20027;-85
2023/07/05 09:49:46;;;;;;;3.20;2.13;;;22.70;99.90;;;;;;8287502;28;20034;-85
2023/07/05 09:54:00;;;;;;;2.35;1.88;;;22.00;99.90;;;;;;8282444;28;20032;-84
2023/07/05 09:58:01;;;;;;;2.45;2.00;;;21.40;99.90;;;;;;8249718;28;20029;-83
2023/07/05 10:02:12;;;;;;;3.33;2.25;;;21.40;99.90;;;;;;8342906;28;20032;-85
2023/07/05 10:06:16;;;;;;;4.30;2.30;;;22.30;99.90;;;;;;8217456;28;20065;-85
2023/07/05 10:10:16;;;;;;;2.75;1.40;;;23.60;99.90;;;;;;8299617;28;20062;-84
2023/07/05 10:14:20;;;;;;;3.45;1.70;;;24.00;99.90;;;;;;8272848;28;20031;-81
2023/07/05 10:18:28;;;;;;;1.88;1.48;;;24.30;99.90;;;;;;8291872;28;20055;-84
2023/07/05 10:22:32;;;;;;;3.22;1.40;;;24.40;99.90;;;;;;8302526;28;20025;-83
2023/07/05 10:26:33;;;;;;;3.35;1.30;;;24.90;99.90;;;;;;8259796;28;20031;-83
2023/07/05 10:30:51;;;;;;;1.55;1.40;;;25.30;99.90;;;;;;8268919;28;20038;-83
2023/07/05 10:34:55;;;;;;;4.00;0.93;;;25.50;99.90;;;;;;8213228;28;20027;-84
2023/07/05 10:38:56;;;;;;;1.10;0.88;;;26.30;99.90;;;;;;8274240;28;20101;-82
2023/07/05 10:43:01;;;;;;;0.70;0.70;;;24.40;99.90;;;;;;8266520;28;20027;-84
2023/07/05 10:47:03;;;;;;;1.48;0.80;;;22.90;99.90;;;;;;8275202;28;20052;-84
2023/07/05 10:51:12;;;;;;;1.08;0.60;;;22.00;99.90;;;;;;8201008;28;20475;-84
2023/07/05 10:55:19;;;;;;;2.35;0.70;;;21.90;99.90;;;;;;8205849;28;20039;-84
2023/07/05 10:59:43;;;;;;;0.65;0.50;;;22.40;99.90;;;;;;8292034;28;20440;-84
2023/07/05 11:04:01;;;;;;;1.40;0.70;;;21.80;99.90;;;;;;8288846;28;20068;-83
2023/07/05 11:08:02;;;;;;;0.93;0.70;;;20.70;99.90;;;;;;8279873;28;20027;-84
2023/07/05 11:12:10;;;;;;;0.98;0.73;;;20.90;99.90;;;;;;8236234;28;20021;-84
2023/07/05 11:16:32;;;;;;;1.63;0.75;;;20.50;99.90;;;;;;8269139;28;20021;-83
2023/07/05 11:20:44;;;;;;;0.98;0.77;;;21.20;99.90;;;;;;8320394;28;20034;-84
2023/07/05 11:24:44;;;;;;;1.02;0.75;;;22.50;99.90;;;;;;8303720;28;20109;-84
2023/07/05 11:28:45;;;;;;;0.60;0.60;;;24.20;99.90;;;;;;8279620;28;20027;-81
2023/07/05 11:33:04;;;;;;;1.40;0.70;;;23.60;99.90;;;;;;8282924;28;20370;-84
2023/07/05 11:37:04;;;;;;;1.58;0.70;;;24.50;99.90;;;;;;8262508;28;20396;-82
2023/07/05 11:41:10;;;;;;;1.95;0.70;;;26.10;99.90;;;;;;8276382;28;20029;-84
2023/07/05 11:45:16;;;;;;;0.70;0.70;;;26.90;99.90;;;;;;8303152;28;20025;-84
2023/07/05 11:49:28;;;;;;;0.68;0.55;;;26.80;99.90;;;;;;8315957;28;20019;-83
2023/07/05 11:53:32;;;;;;;1.08;0.63;;;26.20;99.90;;;;;;8208418;28;20023;-83
2023/07/05 11:57:56;;;;;;;2.00;0.60;;;25.30;99.90;;;;;;8279398;28;20045;-84
2023/07/05 12:01:58;;;;;;;1.20;0.77;;;23.80;99.90;;;;;;8276387;28;20022;-84
2023/07/05 12:06:06;;;;;;;0.60;0.60;;;22.60;99.90;;;;;;8245350;28;20108;-83
2023/07/05 12:10:10;;;;;;;1.27;0.85;;;22.40;99.90;;;;;;8275898;28;20023;-84
2023/07/05 12:14:15;;;;;;;1.63;0.70;;;24.00;99.90;;;;;;8283938;28;20118;-84
2023/07/05 12:18:16;;;;;;;2.42;0.90;;;25.50;99.90;;;;;;8200706;28;20111;-83
2023/07/05 12:22:21;;;;;;;1.60;0.90;;;25.70;99.90;;;;;;8265289;28;20042;-84
2023/07/05 12:26:29;;;;;;;1.10;0.73;;;25.40;99.90;;;;;;8224362;28;20033;-84
2023/07/05 12:30:39;;;;;;;1.08;0.90;;;25.60;99.90;;;;;;8270036;28;20046;-85
2023/07/05 12:34:40;;;;;;;1.90;0.95;;;26.90;99.90;;;;;;8276213;28;20050;-83
2023/07/05 12:38:43;;;;;;;1.42;0.85;;;27.80;99.90;;;;;;8248051;28;20031;-84
2023/07/05 12:43:03;;;;;;;1.38;1.00;;;28.10;99.90;;;;;;8199332;28;20053;-84
2023/07/05 12:47:31;;;;;;;1.07;0.97;;;27.90;99.90;;;;;;8331726;28;20502;-79
2023/07/05 12:51:31;;;;;;;2.90;0.90;;;29.30;99.90;;;;;;8247003;28;20407;-80
2023/07/05 12:55:36;;;;;;;3.83;1.10;;;29.60;97.60;;;;;;8315145;28;20029;-80
2023/07/05 12:59:38;;;;;;;3.97;1.00;;;27.60;98.80;;;;;;8294501;28;20022;-82
2023/07/05 13:03:48;;;;;;;1.10;0.80;;;26.00;99.90;;;;;;8317941;28;20198;-81
2023/07/05 13:07:50;;;;;;;;;;;25.50;99.90;;;;;;8296273;28;20110;-81
2023/07/05 13:12:02;;;;;;;1.95;0.90;;;25.80;99.90;;;;;;8227963;28;19959;-82
2023/07/05 13:16:22;;;;;;;0.90;0.80;;;25.20;99.90;;;;;;8292679;28;20034;-82
2023/07/05 13:20:23;;;;;;;2.13;1.02;;;24.30;99.90;;;;;;8280479;28;20492;-82
2023/07/05 13:24:27;;;;;;;3.42;1.40;;;23.90;99.90;;;;;;8281905;28;20035;-83
2023/07/05 13:28:31;;;;;;;1.52;1.15;;;24.10;99.90;;;;;;8195257;28;20593;-82
2023/07/05 13:32:40;;;;;;;1.75;1.10;;;25.10;99.90;;;;;;8279874;28;20030;-82
2023/07/05 13:36:40;;;;;;;1.45;1.30;;;26.60;99.60;;;;;;8307669;28;20082;-82
2023/07/05 13:40:50;;;;;;;1.75;1.15;;;26.20;98.80;;;;;;8289214;28;20078;-82
2023/07/05 13:44:51;;;;;;;1.80;1.25;;;28.90;97.40;;;;;;8230137;28;20065;-82
2023/07/05 13:48:52;;;;;;;1.85;1.23;;;30.80;92.80;;;;;;8289469;28;20035;-79
2023/07/05 13:52:52;;;;;;;2.05;1.70;;;31.20;85.10;;;;;;8306658;28;20408;-83
2023/07/05 13:56:53;;;;;;;2.15;1.60;;;31.10;86.20;;;;;;8275122;28;20023;-82
2023/07/05 14:00:53;;;;;;;2.60;2.10;;;30.80;85.00;;;;;;8264022;28;20030;-83
2023/07/05 14:04:54;;;;;;;4.25;1.90;;;30.50;72.70;;;;;;8217454;28;20035;-81
2023/07/05 14:08:55;;;;;;;3.55;2.58;;;31.60;73.90;;;;;;8281931;28;20027;-83
2023/07/05 14:12:56;;;;;;;2.67;2.42;;;31.70;67.30;;;;;;8253686;28;20087;-83
2023/07/05 14:16:56;;;;;;;2.47;2.20;;;31.30;65.30;;;;;;8300415;28;20515;-82
2023/07/05 14:20:57;;;;;;;3.95;2.67;;;31.30;64.40;;;;;;8273718;28;20024;-82
2023/07/05 14:24:57;;;;;;;3.35;2.70;;;31.50;58.90;;;;;;8262153;28;20114;-82
2023/07/05 14:28:59;;;;;;;4.80;2.88;;;30.30;63.70;;;;;;8202272;28;20019;-80
2023/07/05 14:32:59;;;;;;;3.42;2.85;;;30.50;61.50;;;;;;8294590;28;20417;-83
2023/07/05 14:37:00;;;;;;;3.83;3.25;;;31.60;63.10;;;;;;8262460;28;20039;-81
2023/07/05 14:41:00;;;;;;;4.63;3.35;;;32.00;56.30;;;;;;8226386;28;20055;-81
2023/07/05 14:45:01;;;;;;;4.70;2.75;;;32.30;59.70;;;;;;8270530;28;20041;-84
2023/07/05 14:49:02;;;;;;;5.57;3.08;;;30.80;53.60;;;;;;8260784;28;20035;-79
2023/07/05 14:53:07;;;;;;;4.72;3.42;;;30.90;54.20;;;;;;8193553;28;20413;-81
2023/07/05 14:57:11;;;;;;;4.07;2.88;;;31.70;53.90;;;;;;8264982;28;20404;-81
2023/07/05 15:01:17;;;;;;;5.55;3.10;;;32.00;54.30;;;;;;8298868;28;20117;-79
2023/07/05 15:05:18;;;;;;;4.13;3.20;;;31.40;55.70;;;;;;8249965;28;20031;-80
2023/07/05 15:09:21;;;;;;;5.75;2.70;;;32.20;53.30;;;;;;8239675;28;20097;-79
2023/07/05 15:13:26;;;;;;;4.13;2.90;;;33.60;52.70;;;;;;8261529;28;20039;-81
2023/07/05 15:17:26;;;;;;;3.53;2.95;;;33.40;53.40;;;;;;8299580;28;20017;-79
2023/07/05 15:21:27;;;;;;;4.45;3.17;;;33.10;50.20;;;;;;8264431;28;20519;-80
2023/07/05 15:25:28;;;;;;;4.63;2.85;;;33.00;53.80;;;;;;8264241;28;20030;-79
2023/07/05 15:29:29;;;;;;;4.53;3.13;;;32.40;50.10;;;;;;8295853;28;20015;-79
2023/07/05 15:33:30;;;;;;;4.28;3.20;;;32.30;49.90;;;;;;8269009;28;20594;-79
2023/07/05 15:37:31;;;;;;;3.22;2.92;;;32.20;50.80;;;;;;8289863;28;20025;-81
2023/07/05 15:41:32;;;;;;;4.93;2.80;;;31.70;50.50;;;;;;8224209;28;20030;-81
2023/07/05 15:45:33;;;;;;;5.88;3.75;;;30.20;56.10;;;;;;8337616;28;20040;-79
2023/07/05 15:49:33;;;;;;;3.95;2.92;;;29.00;55.40;;;;;;8298549;28;20027;-79
2023/07/05 15:53:34;;;;;;;6.57;3.88;;;27.80;56.40;;;;;;8319595;28;20035;-79
2023/07/05 15:57:34;;;;;;;4.72;3.20;;;26.20;60.20;;;;;;8289284;28;20035;-79
2023/07/05 16:01:35;;;;;;;4.03;3.10;;;25.50;59.90;;;;;;8236440;28;20495;-78
2023/07/05 16:05:37;;;;;;;4.95;3.20;;;25.00;67.70;;;;;;8271681;28;20055;-79
2023/07/05 16:09:38;;;;;;;5.40;3.42;;;24.70;60.60;;;;;;8302248;28;20106;-80
2023/07/05 16:13:39;;;;;;;4.70;3.20;;;24.30;63.60;;;;;;8300945;28;20062;-79
2023/07/05 16:17:39;;;;;;;4.32;3.15;;;23.90;67.20;;;;;;8249243;28;20018;-79
2023/07/05 16:21:40;;;;;;;4.45;3.00;;;23.90;64.80;;;;;;8298346;28;20489;-79
2023/07/05 16:25:40;;;;;;;3.92;2.95;;;24.10;64.50;;;;;;8303169;28;20064;-79
2023/07/05 16:29:42;;;;;;;5.45;3.17;;;24.00;61.30;;;;;;8295286;28;20434;-81
2023/07/05 16:33:47;;;;;;;7.10;3.28;;;23.90;65.50;;;;;;8194546;28;20497;-79
2023/07/05 16:37:49;;;;;;;4.28;2.35;;;23.70;71.90;;;;;;8282445;28;20028;-78
2023/07/05 16:41:50;;;;;;;3.15;2.28;;;23.70;64.30;;;;;;8276278;28;20033;-79
2023/07/05 16:45:52;;;;;;;4.18;2.20;;;23.60;59.40;;;;;;8289225;28;20081;-78
2023/07/05 16:49:52;;;;;;;3.17;2.22;;;23.30;60.40;;;;;;8319376;28;20031;-79
2023/07/05 16:53:55;;;;;;;3.50;2.42;;;23.20;62.50;;;;;;8253696;28;20027;-79
2023/07/05 16:57:55;;;;;;;3.13;2.10;;;23.30;65.10;;;;;;8190238;28;20528;-80
2023/07/05 17:01:56;;;;;;;4.47;2.00;;;23.20;64.60;;;;;;8324285;28;20024;-77
2023/07/05 17:05:58;;;;;;;2.33;1.77;;;23.10;62.40;;;;;;8268482;28;20027;-79
2023/07/05 17:09:58;;;;;;;3.03;1.95;;;22.70;63.50;;;;;;8204221;28;20480;-78
2023/07/05 17:13:59;;;;;;;3.88;1.73;;;22.30;64.60;;;;;;8250964;28;20035;-78
2023/07/05 17:18:01;;;;;;;3.05;1.98;;;22.10;64.30;;;;;;8264030;28;20037;-79
2023/07/05 17:22:01;;;;;;;1.88;1.67;;;22.00;62.10;;;;;;8211356;28;20039;-79
2023/07/05 17:26:06;;;;;;;2.15;1.83;;;21.80;68.20;;;;;;8265313;28;20027;-79
2023/07/05 17:30:07;;;;;;;3.25;1.80;;;21.80;69.10;;;;;;8266709;28;20071;-79
2023/07/05 17:34:07;;;;;;;2.53;1.80;;;21.50;69.30;;;;;;8261845;28;20034;-78
2023/07/05 17:38:08;;;;;;;2.38;1.67;;;21.50;65.30;;;;;;8276227;28;20496;-79
2023/07/05 17:42:09;;;;;;;2.33;1.50;;;21.20;62.60;;;;;;8273514;28;20042;-78
2023/07/05 17:46:14;;;;;;;2.50;1.65;;;21.10;65.50;;;;;;8263685;28;20030;-80
2023/07/05 17:50:16;;;;;;;22.80;6.45;;;20.90;62.90;;;;;;8261641;28;20020;-78
2023/07/05 17:54:17;;;;;;;2.58;1.50;;;20.90;70.40;;;;;;8196695;28;20078;-78
2023/07/05 17:58:17;;;;;;;2.15;1.35;;;20.90;64.90;;;;;;8259925;28;20023;-78
2023/07/05 18:02:18;;;;;;;1.90;1.63;;;20.80;65.90;;;;;;8271327;28;20023;-78
2023/07/05 18:06:19;;;;;;;3.13;1.85;;;20.80;66.80;;;;;;8199983;28;20056;-79
2023/07/05 18:10:20;;;;;;;1.77;1.58;;;20.80;66.10;;;;;;8193895;28;20436;-79
2023/07/05 18:14:21;;;;;;;2.55;1.80;;;20.70;80.30;;;;;;8266770;28;20033;-79
2023/07/05 18:18:21;;;;;;;2.20;1.58;;;20.70;82.80;;;;;;8203208;28;20655;-78
2023/07/05 18:22:22;;;;;;;2.42;1.55;;;20.90;75.10;;;;;;8249111;28;20028;-81
2023/07/05 18:26:23;;;;;;;2.47;1.60;;;20.80;82.40;;;;;;8291985;28;20066;-83
2023/07/05 18:30:23;;;;;;;2.72;1.83;;;20.60;80.60;;;;;;8277843;28;20028;-82
2023/07/05 18:34:24;;;;;;;3.35;1.58;;;20.30;84.10;;;;;;8214514;28;20461;-83
2023/07/05 18:38:26;;;;;;;4.25;1.80;;;19.70;88.80;;;;;;8216143;28;20536;-82
2023/07/05 18:42:27;;;;;;;3.25;1.63;;;19.10;90.50;;;;;;8264162;28;20398;-83
2023/07/05 18:46:28;;;;;;;4.90;1.90;;;18.70;91.80;;;;;;8269859;28;20068;-83
2023/07/05 18:50:30;;;;;;;2.65;1.77;;;18.50;93.40;;;;;;8291197;28;20609;-83
2023/07/05 18:54:32;;;;;;;3.00;1.75;;;18.40;94.60;;;;;;8265061;28;20019;-83
2023/07/05 18:58:35;;;;;;;5.38;2.03;;;18.10;97.50;;;;;;8288950;28;20085;-83
2023/07/05 19:02:35;;;;;;;3.22;1.98;;;17.80;99.70;;;;;;8280650;28;20027;-84
2023/07/05 19:06:37;;;;;;;3.38;2.25;;;17.50;99.90;;;;;;8280570;28;20469;-83
2023/07/05 19:10:37;;;;;;;5.82;2.22;;;17.40;99.90;;;;;;8272597;28;20065;-82
2023/07/05 19:14:38;;;;;;;4.25;1.90;;;17.40;99.90;;;;;;8261223;28;20058;-83
2023/07/05 19:18:39;;;;;;;2.55;2.00;;;17.20;99.90;;;;;;8267306;28;20492;-83
2023/07/05 19:22:40;;;;;;;2.75;2.17;;;17.10;99.90;;;;;;8333569;28;20040;-82
2023/07/05 19:26:41;;;;;;;3.20;1.95;;;16.90;99.90;;;;;;8273674;28;20389;-83
2023/07/05 19:30:42;;;;;;;2.42;1.70;;;16.70;99.90;;;;;;8305350;28;20021;-82
2023/07/05 19:34:42;;;;;;;3.30;2.33;;;16.20;99.90;;;;;;8287915;28;20027;-82
2023/07/05 19:38:43;;;;;;;7.40;2.90;;;16.20;99.90;;;;;;8283715;28;20034;-81
2023/07/05 19:42:43;;;;;;;4.93;2.92;;;16.50;99.90;;;;;;8270999;28;20031;-83
2023/07/05 19:46:44;;;;;;;5.15;2.90;;;16.60;99.90;;;;;;8290279;28;20023;-84
2023/07/05 19:50:45;;;;;;;4.68;3.10;;;16.90;99.90;;;;;;8305880;28;20070;-83
2023/07/05 19:54:45;;;;;;;6.07;3.05;;;16.80;99.90;;;;;;8218635;28;20403;-83
2023/07/05 19:58:47;;;;;;;5.18;3.58;;;16.40;99.90;;;;;;8309874;28;20497;-83
2023/07/05 20:02:47;;;;;;;5.65;3.50;;;16.30;99.90;;;;;;8208215;28;20026;-83
2023/07/05 20:06:48;;;;;;;6.82;3.80;;;16.30;99.90;;;;;;8281335;28;20676;-83
2023/07/05 20:10:49;;;;;;;5.53;3.90;;;16.20;99.90;;;;;;8218927;28;20027;-83
2023/07/05 20:14:50;;;;;;;6.72;4.20;;;16.00;99.90;;;;;;8225346;28;20404;-83
2023/07/05 20:18:50;;;;;;;5.80;4.15;;;15.90;99.90;;;;;;8296168;28;20034;-82
2023/07/05 20:22:51;;;;;;;5.72;3.83;;;15.90;99.90;;;;;;8286208;28;20023;-82
2023/07/05 20:27:00;;;;;;;5.55;4.30;;;15.70;99.90;;;;;;8310635;23;20100;-77
2023/07/05 20:31:01;;;;;;;6.25;4.50;;;15.30;99.90;;;;;;8245264;28;20022;-77
2023/07/05 20:39:09;;;;;;;7.03;4.47;;;15.30;99.90;;;;;;8435136;23;20601;-77
2023/07/05 20:43:11;;;;;;;7.60;4.95;;;15.20;99.90;;;;;;8415531;28;20016;-78
2023/07/05 20:47:12;;;;;;;7.40;4.05;;;15.20;99.90;;;;;;8436699;28;20017;-77
2023/07/05 20:51:15;;;;;;;7.85;4.30;;;15.00;99.90;;;;;;8437060;28;20097;-78
2023/07/05 20:55:17;;;;;;;7.80;4.93;;;14.80;99.90;;;;;;8426806;28;20467;-77
2023/07/05 20:59:21;;;;;;;7.97;4.80;;;14.50;99.90;;;;;;8419401;28;20017;-77
2023/07/05 21:03:22;;;;;;;9.02;5.10;;;14.30;99.90;;;;;;8415896;28;20028;-76
2023/07/05 21:07:24;;;;;;;8.80;4.38;;;13.90;99.90;;;;;;8436894;28;20048;-77
2023/07/05 21:11:28;;;;;;;7.53;5.38;;;13.70;99.90;;;;;;8420392;28;20477;-78